Time;durP1;ratioP1;P1;durP2;ratioP2;P2;SDS_P1;SDS_P2;PMS_P1;PMS_P2;Temp;Humidity;BMP_temperature;BMP_pressure;BME280_temperature;BME280_humidity;BME280_pressure;Samples;Min_cycle;Max_cycle;Signal;HPM_P1;HPM_P2
2023/07/19 00:01:26;;;;;;;5.68;1.85;;;;;;;16.68;100.00;101350.38;5051735;28;20073;-48
2023/07/19 00:03:51;;;;;;;6.57;2.58;;;;;;;16.66;100.00;101346.94;5050599;28;20033;-48
2023/07/19 00:06:17;;;;;;;5.53;1.85;;;;;;;16.65;100.00;101348.72;5033830;28;20033;-49
2023/07/19 00:08:42;;;;;;;5.32;2.20;;;;;;;16.24;100.00;101283.44;5051475;28;20094;-47
2023/07/19 00:11:07;;;;;;;2.55;1.85;;;;;;;16.25;100.00;101286.03;5051396;28;20033;-48
2023/07/19 00:13:33;;;;;;;4.30;1.83;;;;;;;16.67;100.00;101351.28;5051597;28;20040;-47
2023/07/19 00:15:59;;;;;;;4.13;1.70;;;;;;;16.22;100.00;101264.94;5051324;28;20590;-48
2023/07/19 00:18:24;;;;;;;3.20;1.65;;;;;;;16.31;100.00;101268.94;5033984;28;20116;-48
2023/07/19 00:20:50;;;;;;;3.13;2.00;;;;;;;16.83;100.00;101339.84;5037359;28;20120;-48
2023/07/19 00:23:15;;;;;;;4.85;1.80;;;;;;;16.41;100.00;101264.84;5026762;28;20393;-51
2023/07/19 00:25:42;;;;;;;3.40;1.65;;;;;;;16.86;100.00;101331.72;5011892;28;20101;-49
2023/07/19 00:28:08;;;;;;;4.60;2.20;;;;;;;16.89;100.00;101338.66;5011654;28;20409;-51
2023/07/19 00:30:33;;;;;;;4.57;2.40;;;;;;;16.45;100.00;101252.28;5011874;28;20052;-50
2023/07/19 00:32:58;;;;;;;3.25;2.08;;;;;;;16.85;100.00;101329.97;5011714;28;20048;-49
2023/07/19 00:35:24;;;;;;;3.10;2.00;;;;;;;16.92;100.00;101335.84;5015798;28;20037;-48
2023/07/19 00:37:49;;;;;;;3.20;2.30;;;;;;;16.60;100.00;101264.84;5031757;28;20044;-49
2023/07/19 00:40:15;;;;;;;3.30;1.95;;;;;;;17.03;100.00;101327.31;5035579;28;20036;-47
2023/07/19 00:42:40;;;;;;;2.88;1.50;;;;;;;16.92;100.00;101298.63;5035846;28;20392;-51
2023/07/19 00:45:06;;;;;;;3.75;2.03;;;;;;;16.69;100.00;101249.31;5035274;28;20034;-50
2023/07/19 00:47:32;;;;;;;3.83;1.85;;;;;;;17.12;100.00;101311.75;5035477;28;20442;-50
2023/07/19 00:49:58;;;;;;;6.00;1.80;;;;;;;17.02;100.00;101293.69;5034192;28;20065;-50
2023/07/19 00:52:23;;;;;;;4.47;1.80;;;;;;;16.73;100.00;101244.66;5015648;28;20080;-49
2023/07/19 00:54:48;;;;;;;3.88;1.92;;;;;;;16.76;100.00;101258.66;5014248;28;20038;-53
2023/07/19 00:57:14;;;;;;;4.93;1.83;;;;;;;16.73;100.00;101236.69;5015584;28;20030;-49
2023/07/19 00:59:40;;;;;;;3.20;1.83;;;;;;;17.12;100.00;101301.13;5014153;28;20034;-48
2023/07/19 01:02:05;;;;;;;3.22;1.92;;;;;;;17.25;100.00;101325.28;5013946;28;20478;-47
2023/07/19 01:04:31;;;;;;;4.95;2.25;;;;;;;16.82;100.00;101241.53;4997683;28;20042;-45
2023/07/19 01:06:56;;;;;;;6.85;2.00;;;;;;;17.19;100.00;101306.97;5021245;28;20408;-46
2023/07/19 01:09:23;;;;;;;3.85;2.05;;;;;;;17.22;100.00;101304.16;5017047;28;20051;-48
2023/07/19 01:11:48;;;;;;;5.18;1.92;;;;;;;17.11;100.00;101298.53;5033592;28;20033;-49
2023/07/19 01:14:14;;;;;;;3.10;2.10;;;;;;;17.13;100.00;101308.13;5033568;28;20041;-49
2023/07/19 01:16:39;;;;;;;2.60;2.10;;;;;;;17.08;100.00;101312.84;5033877;28;20033;-48
2023/07/19 01:19:05;;;;;;;2.90;2.08;;;;;;;17.05;100.00;101315.66;5034922;28;20056;-49
2023/07/19 01:21:30;;;;;;;6.97;1.88;;;;;;;16.28;100.00;101186.72;5033298;28;20116;-48
2023/07/19 01:23:55;;;;;;;3.92;2.33;;;;;;;16.96;100.00;101300.16;5044924;28;20048;-51
2023/07/19 01:26:21;;;;;;;5.03;2.00;;;;;;;16.93;100.00;101307.47;5034351;28;20443;-45
2023/07/19 01:28:46;;;;;;;5.40;1.88;;;;;;;16.83;100.00;101296.44;5033290;28;20045;-48
2023/07/19 01:31:14;;;;;;;4.15;2.30;;;;;;;16.82;100.00;101284.06;5034784;28;20052;-49
2023/07/19 01:33:40;;;;;;;5.28;2.05;;;;;;;16.81;100.00;101288.53;5034560;28;20071;-51
2023/07/19 01:36:05;;;;;;;6.25;2.03;;;;;;;16.79;100.00;101305.50;5034404;28;20469;-49
2023/07/19 01:38:30;;;;;;;6.97;2.17;;;;;;;16.72;100.00;101273.03;5034373;28;20041;-49
2023/07/19 01:40:56;;;;;;;4.45;2.05;;;;;;;16.80;100.00;101292.13;5036796;28;20648;-50
2023/07/19 01:43:21;;;;;;;5.75;2.05;;;;;;;16.34;100.00;101215.63;5054326;28;20419;-46
2023/07/19 01:45:47;;;;;;;4.75;2.08;;;;;;;16.36;100.00;101212.88;5054510;28;20112;-46
2023/07/19 01:48:12;;;;;;;3.22;2.20;;;;;;;16.30;100.00;101211.41;5036441;28;20134;-50
2023/07/19 01:50:37;;;;;;;3.88;2.05;;;;;;;16.70;100.00;101258.97;5053469;28;20087;-51
2023/07/19 01:53:03;;;;;;;5.15;2.83;;;;;;;16.34;100.00;101208.50;5054157;28;20039;-50
2023/07/19 01:55:28;;;;;;;3.97;2.58;;;;;;;16.36;100.00;101208.44;5054327;28;20037;-51
2023/07/19 01:57:53;;;;;;;6.75;2.60;;;;;;;16.55;100.00;101246.47;5048316;28;20037;-51
2023/07/19 02:00:19;;;;;;;5.70;2.15;;;;;;;16.84;100.00;101285.72;5049390;28;20440;-49
2023/07/19 02:02:44;;;;;;;4.05;2.10;;;;;;;16.73;100.00;101268.59;5034061;28;20173;-49
2023/07/19 02:05:09;;;;;;;4.30;2.95;;;;;;;16.59;100.00;101250.69;5049191;28;20530;-49
2023/07/19 02:07:35;;;;;;;5.80;2.60;;;;;;;16.83;100.00;101293.78;5033880;28;20041;-51
2023/07/19 02:10:00;;;;;;;4.90;3.58;;;;;;;16.73;100.00;101268.59;5049381;28;20135;-46
2023/07/19 02:12:25;;;;;;;5.95;3.30;;;;;;;16.81;100.00;101256.63;5033592;28;20033;-45
2023/07/19 02:14:54;;;;;;;4.53;3.10;;;;;;;16.91;100.00;101288.06;5033146;28;20064;-47
2023/07/19 02:17:19;;;;;;;4.68;3.58;;;;;;;16.45;100.00;101205.31;5033906;28;20044;-47
2023/07/19 02:19:44;;;;;;;7.80;3.90;;;;;;;16.79;100.00;101277.13;5033848;28;20417;-48
2023/07/19 02:22:10;;;;;;;7.15;4.00;;;;;;;16.75;100.00;101269.38;5033705;28;20038;-48
2023/07/19 02:24:36;;;;;;;6.88;3.97;;;;;;;16.35;100.00;101198.75;5033570;28;20107;-52
2023/07/19 02:27:01;;;;;;;4.22;3.80;;;;;;;16.57;100.00;101233.09;5033434;28;20041;-50
2023/07/19 02:29:26;;;;;;;5.28;3.70;;;;;;;16.69;100.00;101264.38;5033648;28;20407;-49
2023/07/19 02:31:53;;;;;;;6.68;3.80;;;;;;;16.66;100.00;101269.84;5033161;28;20472;-46
2023/07/19 02:34:20;;;;;;;5.88;3.72;;;;;;;16.60;100.00;101257.75;5033673;28;20068;-48
2023/07/19 02:36:48;;;;;;;8.18;3.72;;;;;;;16.53;100.00;101258.94;5033549;28;20091;-49
2023/07/19 02:39:13;;;;;;;8.13;3.65;;;;;;;16.53;100.00;101252.75;5048528;28;20037;-50
2023/07/19 02:41:38;;;;;;;6.35;4.05;;;;;;;16.49;100.00;101260.00;5033387;28;20048;-47
2023/07/19 02:44:04;;;;;;;5.47;4.10;;;;;;;16.48;100.00;101254.78;5033448;28;20029;-51
2023/07/19 02:46:29;;;;;;;4.78;4.07;;;;;;;16.29;100.00;101218.50;5033081;28;20370;-51
2023/07/19 02:48:54;;;;;;;6.30;3.90;;;;;;;16.48;100.00;101260.97;5046712;28;20491;-49
2023/07/19 02:51:20;;;;;;;7.03;4.32;;;;;;;16.02;100.00;101176.53;5052997;28;20079;-47
2023/07/19 02:53:45;;;;;;;6.25;3.75;;;;;;;16.06;100.00;101178.97;5051541;28;20029;-48
2023/07/19 02:56:10;;;;;;;4.65;4.18;;;;;;;16.53;100.00;101244.78;5052581;28;20051;-50
2023/07/19 02:58:36;;;;;;;4.35;3.67;;;;;;;16.52;100.00;101245.75;5052843;28;20037;-49
2023/07/19 03:01:01;;;;;;;6.47;4.13;;;;;;;16.21;100.00;101199.44;5052780;28;20033;-49
2023/07/19 03:03:26;;;;;;;6.50;4.00;;;;;;;16.53;100.00;101245.66;5046348;28;20113;-48
2023/07/19 03:05:52;;;;;;;6.40;4.07;;;;;;;16.53;100.00;101244.78;5032999;28;20496;-51
2023/07/19 03:08:17;;;;;;;4.82;3.80;;;;;;;16.16;100.00;101174.06;5032990;28;20037;-47
2023/07/19 03:10:42;;;;;;;6.55;3.70;;;;;;;16.34;100.00;101205.00;5032442;28;20030;-47
2023/07/19 03:13:09;;;;;;;5.68;3.95;;;;;;;16.20;100.00;101183.56;5032585;28;20622;-48
2023/07/19 03:15:34;;;;;;;5.68;3.63;;;;;;;16.25;100.00;101198.38;5047610;28;20034;-46
2023/07/19 03:18:00;;;;;;;5.60;3.97;;;;;;;16.59;100.00;101252.47;5032424;28;20042;-48
2023/07/19 03:20:27;;;;;;;5.32;3.70;;;;;;;16.44;100.00;101223.97;5032363;28;20045;-48
2023/07/19 03:22:53;;;;;;;4.40;4.00;;;;;;;16.12;100.00;101183.09;5033055;28;20049;-49
2023/07/19 03:25:19;;;;;;;6.68;4.25;;;;;;;15.99;100.00;101166.94;5050937;28;20423;-50
2023/07/19 03:27:44;;;;;;;4.78;3.70;;;;;;;16.46;100.00;101251.38;5052079;28;20044;-50
2023/07/19 03:30:10;;;;;;;5.10;4.00;;;;;;;16.03;100.00;101170.28;5052103;28;20037;-50
2023/07/19 03:32:35;;;;;;;8.52;3.95;;;;;;;16.40;100.00;101246.34;5051914;28;20033;-47
2023/07/19 03:35:01;;;;;;;4.50;4.05;;;;;;;16.23;100.00;101225.91;5052272;28;20528;-47
2023/07/19 03:37:26;;;;;;;7.97;4.00;;;;;;;15.98;100.00;101185.59;5051279;28;20464;-48
2023/07/19 03:39:51;;;;;;;5.15;4.28;;;;;;;16.35;100.00;101235.94;5050922;28;20037;-48
2023/07/19 03:42:17;;;;;;;8.35;4.53;;;;;;;16.37;100.00;101239.41;5052173;28;20120;-50
2023/07/19 03:44:42;;;;;;;8.13;4.10;;;;;;;16.34;100.00;101231.59;5051787;28;20064;-47
2023/07/19 03:47:07;;;;;;;8.43;4.55;;;;;;;16.33;100.00;101240.47;5051603;28;20033;-51
2023/07/19 03:49:33;;;;;;;5.15;4.13;;;;;;;16.33;100.00;101246.66;5052000;28;20396;-49
2023/07/19 03:51:58;;;;;;;6.82;4.82;;;;;;;16.38;100.00;101243.75;5051219;28;20048;-48
2023/07/19 03:54:23;;;;;;;6.85;4.63;;;;;;;16.22;100.00;101225.09;5033643;28;20445;-49
2023/07/19 03:56:49;;;;;;;7.47;4.35;;;;;;;16.05;100.00;101195.81;5052006;28;20032;-49
2023/07/19 03:59:15;;;;;;;6.95;4.60;;;;;;;16.26;100.00;101225.75;5052014;28;20060;-48
2023/07/19 04:01:40;;;;;;;6.05;4.03;;;;;;;15.97;100.00;101171.44;5051511;28;20377;-49
2023/07/19 04:04:05;;;;;;;6.25;3.97;;;;;;;16.40;100.00;101243.69;5051782;28;20113;-49
2023/07/19 04:06:31;;;;;;;5.18;4.57;;;;;;;16.37;100.00;101228.78;5051410;28;20029;-47
2023/07/19 04:08:56;;;;;;;5.53;4.65;;;;;;;16.43;100.00;101243.53;5050317;28;20029;-50
2023/07/19 04:11:21;;;;;;;7.13;4.75;;;;;;;16.27;100.00;101212.41;5031784;28;20037;-48
2023/07/19 04:13:47;;;;;;;6.35;4.13;;;;;;;16.29;100.00;101210.53;5033545;28;20041;-47
2023/07/19 04:16:12;;;;;;;4.90;4.40;;;;;;;15.98;100.00;101146.63;5036026;28;20042;-47
2023/07/19 04:18:38;;;;;;;5.72;4.20;;;;;;;16.38;100.00;101216.31;5035828;28;20056;-48
2023/07/19 04:21:03;;;;;;;6.93;4.75;;;;;;;16.43;100.00;101217.84;5035977;28;20033;-47
2023/07/19 04:23:28;;;;;;;6.18;4.30;;;;;;;16.54;100.00;101236.78;5036153;28;20057;-49
2023/07/19 04:25:54;;;;;;;5.57;4.53;;;;;;;16.18;100.00;101170.38;5035729;28;20041;-47
2023/07/19 04:28:19;;;;;;;5.90;4.30;;;;;;;16.61;100.00;101240.84;5035094;28;20041;-51
2023/07/19 04:30:45;;;;;;;4.57;4.13;;;;;;;16.66;100.00;101236.16;5036127;28;20037;-48
2023/07/19 04:33:10;;;;;;;5.28;4.05;;;;;;;16.28;100.00;101168.13;5034306;28;20029;-48
2023/07/19 04:35:36;;;;;;;5.50;3.95;;;;;;;16.65;100.00;101233.56;5035888;28;20210;-46
2023/07/19 04:38:03;;;;;;;6.15;4.05;;;;;;;16.37;100.00;101169.47;5034266;28;20040;-45
2023/07/19 04:40:29;;;;;;;6.82;4.90;;;;;;;16.72;100.00;101224.34;5035686;28;20516;-49
2023/07/19 04:42:55;;;;;;;5.32;4.10;;;;;;;16.34;100.00;101159.84;5034016;28;20492;-49
2023/07/19 04:45:20;;;;;;;6.00;3.70;;;;;;;16.71;100.00;101222.63;5035218;28;20042;-52
2023/07/19 04:47:45;;;;;;;5.47;3.78;;;;;;;16.86;100.00;101237.78;5035151;28;20037;-49
2023/07/19 04:50:11;;;;;;;5.05;4.13;;;;;;;16.57;100.00;101183.47;5035603;28;20045;-46
2023/07/19 04:52:37;;;;;;;4.80;3.40;;;;;;;16.97;100.00;101243.41;5034253;28;20034;-48
2023/07/19 04:55:03;;;;;;;4.47;3.30;;;;;;;16.96;100.00;101227.53;5035230;28;20091;-49
2023/07/19 04:57:28;;;;;;;10.65;4.43;;;;;;;17.03;100.00;101231.56;5035251;28;20128;-49
2023/07/19 04:59:54;;;;;;;4.65;3.67;;;;;;;16.63;100.00;101167.22;5033854;28;20516;-48
2023/07/19 05:02:19;;;;;;;5.03;3.47;;;;;;;17.07;100.00;101234.00;5034936;28;20037;-46
2023/07/19 05:04:44;;;;;;;5.53;3.97;;;;;;;17.10;100.00;101239.16;5034967;28;20115;-47
2023/07/19 05:07:10;;;;;;;5.90;3.33;;;;;;;16.76;100.00;101170.94;5049962;28;20546;-48
2023/07/19 05:09:35;;;;;;;5.03;3.70;;;;;;;16.77;100.00;101171.78;5034795;28;20465;-49
2023/07/19 05:12:01;;;;;;;4.97;3.67;;;;;;;16.86;100.00;101169.53;5050298;28;20479;-45
2023/07/19 05:14:26;;;;;;;5.35;3.78;;;;;;;17.38;100.00;101251.84;5034640;28;20508;-46
2023/07/19 05:16:52;;;;;;;6.03;4.10;;;;;;;17.41;100.00;101241.03;5034704;28;20141;-48
2023/07/19 05:19:17;;;;;;;7.68;4.05;;;;;;;17.13;100.00;101187.59;5048298;28;20087;-45
2023/07/19 05:21:42;;;;;;;6.82;4.28;;;;;;;17.13;100.00;101188.44;5033645;28;20116;-46
2023/07/19 05:24:08;;;;;;;6.65;4.13;;;;;;;17.54;100.00;101249.22;5033425;28;20054;-46
2023/07/19 05:26:33;;;;;;;4.88;3.70;;;;;;;17.26;100.00;101194.81;5033700;28;20420;-48
2023/07/19 05:28:59;;;;;;;9.45;3.78;;;;;;;17.67;100.00;101242.28;5033753;28;20045;-48
2023/07/19 05:31:24;;;;;;;8.50;3.78;;;;;;;17.28;100.00;101182.28;5034106;28;20194;-49
2023/07/19 05:33:49;;;;;;;7.20;4.00;;;;;;;17.63;100.00;101228.28;5035813;28;20033;-50
2023/07/19 05:36:15;;;;;;;5.43;3.65;;;;;;;17.83;100.00;101241.34;5036582;28;20047;-47
2023/07/19 05:38:40;;;;;;;6.43;4.10;;;;;;;17.93;100.00;101247.03;5054541;28;20501;-48
2023/07/19 05:41:06;;;;;;;9.60;4.40;;;;;;;17.60;100.00;101169.91;5054129;28;20063;-52
2023/07/19 05:43:32;;;;;;;6.65;3.80;;;;;;;18.11;100.00;101255.78;5036778;28;20029;-49
2023/07/19 05:46:07;;;;;;;6.30;4.07;;;;;;;18.15;100.00;101234.22;5054499;28;20036;-47
2023/07/19 05:48:33;;;;;;;6.00;3.70;;;;;;;18.17;100.00;101250.97;5036657;28;20602;-48
2023/07/19 05:51:00;;;;;;;6.40;3.75;;;;;;;17.83;100.00;101169.44;5035285;28;20057;-49
2023/07/19 05:53:25;;;;;;;4.82;4.20;;;;;;;17.94;100.00;101190.16;5054381;28;20032;-48
2023/07/19 05:55:52;;;;;;;6.50;3.42;;;;;;;18.24;100.00;101243.50;5054192;28;20048;-51
2023/07/19 05:58:18;;;;;;;5.13;3.83;;;;;;;17.96;100.00;101173.16;5054098;28;20442;-50
2023/07/19 06:00:43;;;;;;;3.70;2.58;;;;;;;18.36;100.00;101243.63;5054445;28;20040;-46
2023/07/19 06:03:09;;;;;;;5.40;2.63;;;;;;;18.40;100.00;101245.16;5054135;28;20037;-47
2023/07/19 06:05:34;;;;;;;9.63;2.67;;;;;;;18.48;100.00;101250.03;5054121;28;20087;-49
2023/07/19 06:08:00;;;;;;;5.25;2.53;;;;;;;18.41;100.00;101220.25;5031729;28;20033;-43
2023/07/19 06:10:25;;;;;;;9.48;3.03;;;;;;;18.65;100.00;101243.78;5032773;28;20099;-47
2023/07/19 06:12:50;;;;;;;5.95;2.75;;;;;;;18.91;100.00;101251.06;5033822;28;20034;-49
2023/07/19 06:15:16;;;;;;;5.20;2.38;;;;;;;18.72;100.00;101187.31;5033290;28;20052;-46
2023/07/19 06:17:42;;;;;;;3.58;2.10;;;;;;;18.82;100.00;101190.28;5046548;28;20036;-48
2023/07/19 06:20:10;;;;;;;4.45;2.30;;;;;;;18.94;100.00;101201.03;5031772;28;20029;-51
2023/07/19 06:22:36;;;;;;;5.43;2.05;;;;;;;19.46;100.00;101260.09;5031592;28;20029;-51
2023/07/19 06:25:01;;;;;;;5.32;2.25;;;;;;;19.53;100.00;101253.41;5040880;28;20060;-46
2023/07/19 06:27:26;;;;;;;8.27;3.17;;;;;;;19.53;100.00;101252.53;5051112;28;20090;-51
2023/07/19 06:29:52;;;;;;;7.20;2.13;;;;;;;19.54;100.00;101251.59;5051881;28;20029;-49
2023/07/19 06:32:17;;;;;;;4.38;2.28;;;;;;;19.34;100.00;101209.25;5050426;28;20040;-47
2023/07/19 06:34:43;;;;;;;4.68;2.55;;;;;;;19.34;100.00;101209.25;5033723;28;20400;-48
2023/07/19 06:37:08;;;;;;;7.03;2.20;;;;;;;19.58;100.00;101269.16;5051201;28;20488;-46
2023/07/19 06:39:34;;;;;;;4.68;2.42;;;;;;;18.91;100.00;101160.38;5051043;28;20373;-52
2023/07/19 06:41:59;;;;;;;5.13;2.47;;;;;;;19.45;100.00;101241.50;5049791;28;20427;-48
2023/07/19 06:44:25;;;;;;;5.05;2.85;;;;;;;19.64;100.00;101269.59;5051189;28;20503;-46
2023/07/19 06:46:50;;;;;;;5.00;2.75;;;;;;;19.61;100.00;101272.47;5050845;28;20590;-46
2023/07/19 06:49:16;;;;;;;9.13;2.78;;;;;;;19.74;100.00;101267.22;5050498;28;20098;-48
2023/07/19 06:51:41;;;;;;;4.93;2.80;;;;;;;19.57;100.00;101209.56;5050858;28;20473;-47
2023/07/19 06:54:06;;;;;;;6.88;3.60;;;;;;;20.05;100.00;101276.81;5050679;28;20044;-49
2023/07/19 06:56:32;;;;;;;4.32;2.72;;;;;;;19.91;100.00;101228.72;5032757;28;20037;-49
2023/07/19 06:58:58;;;;;;;7.70;2.20;;;;;;;20.41;100.00;101290.47;5028554;28;20128;-48
2023/07/19 07:01:23;;;;;;;7.28;2.78;;;;;;;20.75;100.00;101283.75;5030725;28;20137;-48
2023/07/19 07:03:48;;;;;;;5.05;2.30;;;;;;;20.88;100.00;101281.94;5031752;28;20076;-49
2023/07/19 07:06:14;;;;;;;5.78;2.53;;;;;;;20.71;100.00;101259.00;5013128;28;20437;-48
2023/07/19 07:08:39;;;;;;;6.55;2.90;;;;;;;20.57;100.00;101235.00;5030902;28;20476;-46
2023/07/19 07:11:04;;;;;;;4.93;2.50;;;;;;;20.49;100.00;101231.97;5030918;28;20116;-48
2023/07/19 07:13:30;;;;;;;3.53;2.17;;;;;;;20.71;100.00;101280.41;5013108;28;20099;-48
2023/07/19 07:15:58;;;;;;;5.65;2.50;;;;;;;20.26;100.00;101226.47;5030573;28;20495;-49
2023/07/19 07:18:23;;;;;;;4.10;2.30;;;;;;;20.18;100.00;101259.88;5030539;28;20464;-47
2023/07/19 07:20:51;;;;;;;5.63;2.25;;;;;;;20.14;100.00;101252.13;5030544;28;20116;-56
2023/07/19 07:23:17;;;;;;;7.22;2.95;;;;;;;20.21;100.00;101227.59;5030489;28;20144;-50
2023/07/19 07:25:42;;;;;;;4.47;2.40;;;;;;;20.82;100.00;101301.06;5030404;28;20045;-50
2023/07/19 07:28:08;;;;;;;6.90;2.50;;;;;;;20.89;100.00;101294.38;5029951;28;20044;-50
2023/07/19 07:30:37;;;;;;;4.85;2.35;;;;;;;20.86;100.00;101288.34;5030440;28;20045;-49
2023/07/19 07:33:06;;;;;;;5.78;2.10;;;;;;;20.47;100.00;101233.03;5029921;28;20508;-47
2023/07/19 07:35:32;;;;;;;5.00;2.55;;;;;;;21.03;100.00;101288.91;5030768;28;20044;-52
2023/07/19 07:37:58;;;;;;;9.32;2.15;;;;;;;21.44;100.00;101285.22;5030597;28;20033;-47
2023/07/19 07:40:23;;;;;;;5.53;2.55;;;;;;;21.39;100.00;101242.69;5029695;28;20037;-51
2023/07/19 07:42:48;;;;;;;4.90;2.13;;;;;;;21.69;100.00;101286.03;5030075;28;20037;-47
2023/07/19 07:45:14;;;;;;;5.07;2.20;;;;;;;21.79;100.00;101300.50;5030349;28;20103;-48
2023/07/19 07:47:39;;;;;;;3.45;2.10;;;;;;;21.67;100.00;101297.84;5028786;28;20448;-47
2023/07/19 07:50:08;;;;;;;10.32;2.42;;;;;;;21.28;100.00;101237.22;5030620;28;20552;-48
2023/07/19 07:52:34;;;;;;;4.35;2.33;;;;;;;21.47;100.00;101290.34;5045754;28;20393;-49
2023/07/19 07:54:59;;;;;;;5.43;2.00;;;;;;;21.43;100.00;101288.84;5030634;28;20056;-49
2023/07/19 07:57:25;;;;;;;4.68;2.10;;;;;;;21.00;100.00;101213.31;5030557;28;20037;-46
2023/07/19 07:59:50;;;;;;;5.07;2.30;;;;;;;20.99;100.00;101249.94;5030060;28;20405;-48
2023/07/19 08:02:16;;;;;;;4.38;2.05;;;;;;;20.81;100.00;101237.81;5029789;28;20038;-48
2023/07/19 08:04:41;;;;;;;6.00;2.30;;;;;;;20.68;100.00;101237.81;5029763;28;20041;-50
2023/07/19 08:07:06;;;;;;;5.53;2.60;;;;;;;21.00;100.00;101283.78;5030140;28;20044;-48
2023/07/19 08:09:35;;;;;;;3.33;1.85;;;;;;;21.29;100.00;101279.09;5030081;28;20148;-46
2023/07/19 08:12:00;;;;;;;3.25;2.10;;;;;;;21.60;100.00;101275.97;5030017;28;20477;-46
2023/07/19 08:14:25;;;;;;;3.50;1.80;;;;;;;21.81;100.00;101285.16;5029085;28;20124;-49
2023/07/19 08:16:53;;;;;;;3.95;2.28;;;;;;;21.73;100.00;101225.91;5028666;28;20086;-50
2023/07/19 08:19:18;;;;;;;3.72;2.00;;;;;;;22.46;100.00;101295.59;5029885;28;20033;-51
2023/07/19 08:21:44;;;;;;;5.60;2.00;;;;;;;22.74;100.00;101243.41;5029411;28;20041;-48
2023/07/19 08:24:09;;;;;;;5.68;1.95;;;;;;;22.88;100.00;101225.25;5011013;28;20049;-48
2023/07/19 08:26:34;;;;;;;4.22;1.90;;;;;;;23.49;100.00;101283.16;5029878;28;20124;-47
2023/07/19 08:29:00;;;;;;;3.85;1.90;;;;;;;23.36;100.00;101276.97;5029864;28;20116;-48
2023/07/19 08:31:25;;;;;;;6.13;2.60;;;;;;;23.11;100.00;101282.56;5030110;28;20038;-47
2023/07/19 08:33:52;;;;;;;5.35;2.40;;;;;;;22.59;100.00;101228.47;5030045;28;20034;-47
2023/07/19 08:36:17;;;;;;;5.82;2.58;;;;;;;22.18;100.00;101234.25;5029426;28;20095;-49
2023/07/19 08:38:42;;;;;;;6.18;2.50;;;;;;;22.01;100.00;101285.59;5029532;28;20508;-47
2023/07/19 08:41:11;;;;;;;3.95;2.30;;;;;;;21.81;100.00;101273.56;5045985;28;20468;-48
2023/07/19 08:43:36;;;;;;;6.75;2.50;;;;;;;21.96;100.00;101285.03;5049649;28;20091;-47
2023/07/19 08:46:02;;;;;;;6.90;2.70;;;;;;;21.89;100.00;101222.16;5032085;28;20505;-48
2023/07/19 08:48:27;;;;;;;6.10;2.17;;;;;;;22.37;100.00;101280.19;5048290;28;20473;-49
2023/07/19 08:50:57;;;;;;;4.20;2.45;;;;;;;22.35;100.00;101269.59;5049315;28;20397;-47
2023/07/19 08:53:24;;;;;;;6.10;2.42;;;;;;;21.94;100.00;101231.56;5049375;28;20059;-47
2023/07/19 08:55:50;;;;;;;5.80;2.53;;;;;;;21.76;100.00;101209.63;5048916;28;20029;-51
2023/07/19 08:58:17;;;;;;;5.50;2.42;;;;;;;21.94;100.00;101255.69;5034935;28;20044;-51
2023/07/19 09:00:42;;;;;;;7.07;2.83;;;;;;;21.88;100.00;101288.28;5047879;28;20033;-47
2023/07/19 09:03:09;;;;;;;5.60;2.38;;;;;;;21.60;100.00;101259.06;5031846;28;20037;-46
2023/07/19 09:05:36;;;;;;;6.10;2.58;;;;;;;21.52;100.00;101281.03;5033283;28;20029;-48
2023/07/19 09:08:02;;;;;;;4.72;2.63;;;;;;;20.99;100.00;101235.69;5033363;28;20156;-53
2023/07/19 09:10:28;;;;;;;6.25;2.65;;;;;;;20.85;100.00;101225.09;5049009;28;20191;-48
2023/07/19 09:12:54;;;;;;;7.00;2.38;;;;;;;21.18;100.00;101271.84;5031717;28;20038;-51
2023/07/19 09:15:19;;;;;;;4.25;2.00;;;;;;;21.41;100.00;101255.97;5031897;28;20038;-49
2023/07/19 09:17:46;;;;;;;4.38;2.58;;;;;;;21.64;100.00;101277.47;5033530;28;20073;-48
2023/07/19 09:20:13;;;;;;;3.60;2.38;;;;;;;21.91;100.00;101282.72;5031943;28;20025;-46
2023/07/19 09:22:39;;;;;;;5.15;2.22;;;;;;;21.93;100.00;101279.91;5031813;28;20030;-47
2023/07/19 09:25:05;;;;;;;7.72;2.58;;;;;;;22.02;100.00;101295.31;5031885;28;20057;-49
2023/07/19 09:27:32;;;;;;;5.80;2.50;;;;;;;21.66;100.00;101239.84;5032114;28;20053;-46
2023/07/19 09:29:58;;;;;;;4.30;2.53;;;;;;;21.51;100.00;101238.28;5031608;28;20036;-52
2023/07/19 09:32:24;;;;;;;5.68;2.20;;;;;;;21.54;100.00;101276.41;5031908;28;20037;-48
2023/07/19 09:34:54;;;;;;;5.93;2.65;;;;;;;21.47;100.00;101285.00;5015050;28;20033;-48
2023/07/19 09:37:21;;;;;;;5.70;2.45;;;;;;;21.62;100.00;101300.00;5032990;28;20037;-46
2023/07/19 09:39:46;;;;;;;4.95;2.13;;;;;;;21.41;100.00;101226.50;5047866;28;20042;-48
2023/07/19 09:42:13;;;;;;;7.72;2.70;;;;;;;21.86;100.00;101285.69;5048211;28;20034;-45
2023/07/19 09:44:39;;;;;;;4.90;2.33;;;;;;;21.54;100.00;101233.53;5031912;28;20042;-48
2023/07/19 09:47:08;;;;;;;5.90;2.88;;;;;;;21.76;100.00;101247.13;5049647;28;20025;-50
2023/07/19 09:49:34;;;;;;;6.47;2.22;;;;;;;21.61;100.00;101232.16;5052100;28;20492;-50
2023/07/19 09:52:01;;;;;;;4.13;1.90;;;;;;;22.48;100.00;101303.50;5052337;28;20067;-47
2023/07/19 09:54:28;;;;;;;8.18;2.33;;;;;;;22.80;100.00;101315.41;5052208;28;20276;-48
2023/07/19 09:56:53;;;;;;;5.10;1.60;;;;;;;22.41;100.00;101233.41;5033921;28;20055;-48
2023/07/19 09:59:23;;;;;;;4.32;2.10;;;;;;;22.89;100.00;101307.50;5051977;28;20484;-48
2023/07/19 10:01:49;;;;;;;4.13;2.10;;;;;;;22.62;100.00;101308.72;5052095;28;20480;-48
2023/07/19 10:04:28;;;;;;;4.60;1.85;;;;;;;22.39;100.00;101319.31;5035583;28;20037;-49
2023/07/19 10:07:14;;;;;;;2.85;1.50;;;;;;;22.69;100.00;101320.72;5032435;28;20069;-48
2023/07/19 10:09:47;;;;;;;3.88;1.52;;;;;;;22.64;100.00;101334.50;5032004;28;20036;-50
2023/07/19 10:12:15;;;;;;;4.20;1.83;;;;;;;22.64;100.00;101328.25;5047302;28;20079;-48
2023/07/19 10:14:51;;;;;;;6.43;2.00;;;;;;;23.15;100.00;101318.94;5032064;28;20037;-52
2023/07/19 10:17:16;;;;;;;4.13;1.88;;;;;;;23.27;100.00;101296.50;5031577;28;20429;-51
2023/07/19 10:20:10;;;;;;;4.78;1.67;;;;;;;23.16;100.00;101312.59;5029567;28;20044;-50
2023/07/19 10:22:55;;;;;;;4.88;1.67;;;;;;;23.30;100.00;101265.84;5032172;28;20041;-49
2023/07/19 10:25:24;;;;;;;3.85;1.55;;;;;;;23.16;100.00;101226.66;5031110;28;20362;-48
2023/07/19 10:28:09;;;;;;;4.70;1.30;;;;;;;24.15;100.00;101283.22;5031346;28;20536;-45
2023/07/19 10:30:46;;;;;;;6.93;1.50;;;;;;;24.09;100.00;101338.34;5043020;28;20554;-47
2023/07/19 10:33:15;;;;;;;4.68;1.55;;;;;;;23.97;100.00;101342.88;5032035;28;20032;-44
2023/07/19 10:35:42;;;;;;;7.00;1.70;;;;;;;23.81;100.00;101293.16;5031625;28;20076;-53
2023/07/19 10:38:15;;;;;;;3.65;1.60;;;;;;;24.85;100.00;101345.53;5031088;28;20033;-50
2023/07/19 10:40:43;;;;;;;3.30;1.40;;;;;;;25.49;100.00;101338.22;5038723;28;20492;-49
2023/07/19 10:43:09;;;;;;;6.45;2.05;;;;;;;26.32;100.00;101349.69;5051197;28;20044;-49
2023/07/19 10:45:35;;;;;;;3.10;1.58;;;;;;;26.13;100.00;101354.97;5035821;28;20033;-52
2023/07/19 10:48:01;;;;;;;2.47;1.30;;;;;;;26.27;100.00;101296.09;5030852;28;20120;-48
2023/07/19 10:50:26;;;;;;;4.93;1.60;;;;;;;26.49;100.00;101353.53;5013470;28;20179;-47
2023/07/19 10:52:52;;;;;;;3.55;1.80;;;;;;;26.07;100.00;101342.88;5031685;28;20087;-48
2023/07/19 10:55:17;;;;;;;4.70;1.60;;;;;;;26.17;100.00;101322.25;5031490;28;20491;-48
2023/07/19 10:57:42;;;;;;;3.58;1.60;;;;;;;24.31;100.00;101141.09;5043108;28;20070;-53
2023/07/19 11:00:14;;;;;;;2.92;1.50;;;;;;;25.25;100.00;101287.28;5005938;28;20033;-52
2023/07/19 11:02:40;;;;;;;4.05;1.50;;;;;;;25.01;100.00;101344.13;5001848;28;20114;-47
2023/07/19 11:05:09;;;;;;;5.53;2.08;;;;;;;24.46;100.00;101326.28;5026621;28;20069;-50
2023/07/19 11:07:35;;;;;;;5.85;1.77;;;;;;;24.02;100.00;101327.22;5027789;28;20044;-51
2023/07/19 11:10:01;;;;;;;3.78;1.38;;;;;;;23.97;100.00;101340.19;5040741;28;20049;-51
2023/07/19 11:12:27;;;;;;;4.90;1.50;;;;;;;24.03;100.00;101298.50;5024784;28;20120;-47